Sumner, Michigan
Current Conditions -  °F | °C
As of 9:35 PM on Saturday 22 Nov 2014 (Local Time) from KAMN Reporting Station
Haze Haze  
Wind Chill:   Ceiling: 200
Heat Index:   Visibility: 2.5mi
Dew Point:   Wind: 7mph
Humidity: 100%   Direction: 200°SSW
Pressure: 29.87"   Gusts: NA
Location:  43.31°N, 84.82°W
Report Text: KAMN 230235Z AUTO 20006KT 2 1/2SM BR OVC002 06/06 A2987 RMK AO2 T00580058
Loading
Personal Weather Stations






























Interactive Weather Map New forecast layout! Learn more

10-Day Weather Forecast

Advertisements
Track Severe Weather on mobile